| time (UTC) | temp C | wind direction | speed KPH | gust KPH | rain 1hr cm | rain 24hr cm | rain mn cm | humidity % | barometer mb |
| 20260507114826 | 3 | 270 | 4.8 | 20.9 | 0.00 | 1.52 | 0.00 | 1011.0 | |
| 20260507113249 | 4 | 90 | 4.8 | 16.1 | 0.00 | 1.52 | 0.00 | 1011.1 | |
| 20260507111713 | 3 | 180 | 3.2 | 14.5 | 0.00 | 1.52 | 0.00 | 1010.0 | |
| 20260507111711 | 3 | 180 | 3.2 | 14.5 | 0.00 | 1.52 | 0.00 | 1010.0 | |
| 20260507111707 | 3 | 180 | 3.2 | 14.5 | 0.00 | 1.52 | 0.00 | 1010.0 | |
| 20260507110124 | 4 | 270 | 4.8 | 16.1 | 0.00 | 1.52 | 0.00 | 1009.7 | |
| 20260507104547 | 5 | 90 | 6.4 | 24.1 | 0.00 | 1.52 | 0.00 | 1009.5 | |
| 20260507103011 | 4 | 222 | 4.8 | 12.9 | 0.00 | 1.52 | 0.00 | 1010.0 | |
| 20260507101434 | 3 | 270 | 4.8 | 14.5 | 0.00 | 1.52 | 0.00 | 1010.2 | |
| 20260507095847 | 3 | 222 | 4.8 | 14.5 | 0.00 | 1.52 | 0.00 | 1010.1 | |
| 20260507094309 | 3 | 222 | 4.8 | 12.9 | 0.00 | 1.52 | 0.00 | 1009.8 | |
| 20260507092733 | 3 | 222 | 4.8 | 19.3 | 0.00 | 1.52 | 0.00 | 1010.1 | |
| 20260507091156 | 3 | 315 | 4.8 | 19.3 | 0.00 | 1.52 | 0.00 | 1010.1 | |
| 20260507085609 | 3 | 315 | 4.8 | 14.5 | 0.00 | 1.52 | 0.00 | 1010.0 | |
| 20260507084032 | 3 | 222 | 4.8 | 22.5 | 0.00 | 1.52 | 0.00 | 1010.1 | |
| 20260507084030 | 3 | 222 | 4.8 | 22.5 | 0.00 | 1.52 | 0.00 | 1010.1 | |
| 20260507082454 | 3 | 222 | 6.4 | 20.9 | 0.00 | 1.52 | 0.00 | 1010.5 | |
| 20260507080917 | 3 | 270 | 6.4 | 20.9 | 0.00 | 1.52 | 0.00 | 1009.3 | |
| 20260507073753 | 3 | 222 | 3.2 | 16.1 | 0.00 | 1.52 | 0.00 | 1009.0 | |
| 20260507061932 | 2 | 270 | 3.2 | 14.5 | 0.00 | 1.52 | 0.00 | 1009.9 | |
| 20260507054813 | 2 | 270 | 3.2 | 14.5 | 0.00 | 1.52 | 0.00 | 1008.7 | |
| 20260507053236 | 2 | 222 | 3.2 | 11.3 | 0.00 | 1.52 | 0.00 | 1008.8 | |
| 20260507050121 | 2 | 180 | 3.2 | 11.3 | 0.00 | 1.52 | 0.00 | 1008.8 | |
| 20260507044534 | 2 | 270 | 3.2 | 12.9 | 0.00 | 1.52 | 0.00 | 1008.8 | |
| 20260507041420 | 2 | 222 | 1.6 | 9.7 | 0.00 | 1.52 | 0.00 | 1008.9 | |
| 20260507035838 | 2 | 222 | 3.2 | 11.3 | 0.00 | 1.52 | 0.00 | 1007.9 | |
| 20260507025605 | 2 | 222 | 1.6 | 6.4 | 0.00 | 1.52 | 0.00 | 1007.9 | |
| 20260507003501 | 2 | 222 | 1.6 | 6.4 | 0.03 | 1.40 | 0.00 | 1008.0 | |
| 20260506193735 | 3 | 135 | 1.6 | 9.7 | 0.13 | 0.08 | 0.00 | 1005.3 | |
| 20260506193731 | 3 | 135 | 1.6 | 9.7 | 0.13 | 0.08 | 0.00 | 1005.3 | |
| 20260506190611 | 3 | 222 | 1.6 | 6.4 | 0.10 | 0.00 | 0.00 | 1005.1 | |
| 20260506190606 | 3 | 222 | 1.6 | 6.4 | 0.10 | 0.00 | 0.00 | 1005.1 | |
| 20260506181910 | 4 | 0 | 1.6 | 4.8 | 0.00 | 0.61 | 0.00 | 1002.7 | |
| 20260506171631 | 5 | 0 | 1.6 | 3.2 | 0.00 | 0.61 | 0.00 | 1002.2 | |
| 20260506171626 | 5 | 0 | 1.6 | 3.2 | 0.00 | 0.61 | 0.00 | 1002.2 | |
| 20260506164517 | 6 | 135 | 1.6 | 4.8 | 0.00 | 0.61 | 0.00 | 1001.3 | |
| 20260506162939 | 5 | 0 | 1.6 | 6.4 | 0.00 | 0.61 | 0.00 | 1002.0 | |
| 20260506155814 | 5 | 90 | 1.6 | 4.8 | 0.00 | 0.61 | 0.00 | 1001.8 | |
| 20260506152700 | 5 | 315 | 1.6 | 4.8 | 0.00 | 0.61 | 0.00 | 1003.5 | |
| 20260506152659 | 5 | 315 | 1.6 | 4.8 | 0.00 | 0.61 | 0.00 | 1003.5 | |
| 20260506152655 | 5 | 315 | 1.6 | 4.8 | 0.00 | 0.61 | 0.00 | 1003.5 | |
| 20260506151112 | 5 | 315 | 1.6 | 6.4 | 0.00 | 0.61 | 0.00 | 1003.3 | |
| 20260506151108 | 5 | 315 | 1.6 | 6.4 | 0.00 | 0.61 | 0.00 | 1003.3 | |
| 20260506145535 | 5 | 0 | 1.6 | 6.4 | 0.00 | 0.61 | 0.00 | 1003.1 | |
| 20260506142421 | 6 | 45 | 1.6 | 6.4 | 0.00 | 0.61 | 0.00 | 1003.0 | |
| 20260506142416 | 6 | 45 | 1.6 | 6.4 | 0.00 | 0.61 | 0.00 | 1003.0 | |
| 20260506130559 | 6 | 270 | 1.6 | 3.2 | 0.00 | 0.51 | 0.00 | 1002.6 | |
| 20260506130554 | 6 | 270 | 1.6 | 3.2 | 0.00 | 0.51 | 0.00 | 1002.6 | |
| 20260506123440 | 7 | 222 | 1.6 | 4.8 | 0.00 | 0.51 | 0.00 | 1001.9 | |
| 20260506121903 | 7 | 270 | 3.2 | 9.7 | 0.00 | 0.51 | 0.00 | 1001.5 | |
| 20260506120316 | 8 | 315 | 3.2 | 11.3 | 0.00 | 0.51 | 0.00 | 1001.2 |